Time;durP1;ratioP1;P1;durP2;ratioP2;P2;SDS_P1;SDS_P2;PMS_P1;PMS_P2;Temp;Humidity;BMP_temperature;BMP_pressure;BME280_temperature;BME280_humidity;BME280_pressure;Samples;Min_cycle;Max_cycle;Signal;HPM_P1;HPM_P2
2021/10/20 00:02:26;;;;;;;404.77;86.53;;;16.60;99.90;;;;;;6159345;23;20418;-77
2021/10/20 00:04:54;;;;;;;266.37;78.10;;;16.60;99.90;;;;;;6159141;23;20435;-77
2021/10/20 00:07:23;;;;;;;243.93;75.30;;;16.60;99.90;;;;;;6160689;23;20788;-77
2021/10/20 00:09:51;;;;;;;307.87;84.10;;;16.50;99.90;;;;;;6195594;23;20394;-77
2021/10/20 00:12:21;;;;;;;294.57;77.53;;;16.50;99.90;;;;;;6160429;23;20510;-77
2021/10/20 00:14:51;;;;;;;297.03;69.10;;;16.50;99.90;;;;;;6159462;23;20396;-77
2021/10/20 00:17:19;;;;;;;274.50;70.47;;;16.50;99.90;;;;;;6159256;23;20783;-77
2021/10/20 00:19:49;;;;;;;310.30;91.03;;;16.40;99.90;;;;;;6195545;23;20398;-77
2021/10/20 00:22:17;;;;;;;269.23;74.90;;;16.40;99.90;;;;;;6159247;23;20402;-77
2021/10/20 00:24:45;;;;;;;337.23;90.17;;;16.40;99.90;;;;;;6185397;23;20900;-77
2021/10/20 00:27:13;;;;;;;281.73;80.97;;;16.40;99.90;;;;;;6185960;23;20415;-77
2021/10/20 00:29:42;;;;;;;347.00;87.03;;;16.40;99.90;;;;;;6159108;23;20797;-77
2021/10/20 00:32:11;;;;;;;203.20;62.77;;;16.30;99.90;;;;;;6159183;23;20476;-77
2021/10/20 00:34:42;;;;;;;303.63;81.33;;;16.30;99.90;;;;;;6159232;23;20448;-77
2021/10/20 00:37:11;;;;;;;314.43;78.00;;;16.30;99.90;;;;;;6159101;23;20444;-77
2021/10/20 00:39:39;;;;;;;361.33;74.80;;;16.30;99.90;;;;;;6185581;23;20768;-77
2021/10/20 00:42:07;;;;;;;314.13;70.77;;;16.30;99.90;;;;;;6159152;23;20382;-77
2021/10/20 00:44:46;;;;;;;264.50;68.00;;;16.20;99.90;;;;;;6159040;23;20388;-77
2021/10/20 00:47:16;;;;;;;312.60;73.97;;;16.20;99.90;;;;;;6159250;23;20442;-77
2021/10/20 00:49:44;;;;;;;162.30;54.07;;;16.10;99.90;;;;;;6158926;23;20443;-78
2021/10/20 00:52:13;;;;;;;306.23;84.63;;;16.20;99.90;;;;;;6159064;23;20814;-76
2021/10/20 00:54:42;;;;;;;293.43;80.07;;;16.10;99.90;;;;;;6185732;23;20404;-77
2021/10/20 00:57:12;;;;;;;308.50;61.13;;;16.10;99.90;;;;;;6195443;23;20435;-76
2021/10/20 00:59:41;;;;;;;286.93;77.30;;;16.10;99.90;;;;;;6159706;23;20821;-76
2021/10/20 01:02:10;;;;;;;252.57;67.53;;;16.10;99.90;;;;;;6158835;23;20487;-76
2021/10/20 01:04:40;;;;;;;212.40;53.60;;;16.10;99.90;;;;;;6159104;23;20419;-77
2021/10/20 01:07:08;;;;;;;268.27;66.63;;;16.10;99.90;;;;;;6159172;23;20462;-76
2021/10/20 01:09:37;;;;;;;274.70;75.07;;;16.00;99.90;;;;;;6159044;23;20439;-77
2021/10/20 01:12:06;;;;;;;215.83;66.47;;;16.00;99.90;;;;;;6160144;23;20450;-76
2021/10/20 01:14:34;;;;;;;286.37;79.77;;;16.00;99.90;;;;;;6162316;23;20430;-76
2021/10/20 01:17:03;;;;;;;227.83;54.27;;;16.00;99.90;;;;;;6187460;23;20811;-76
2021/10/20 01:19:33;;;;;;;203.37;59.87;;;16.00;99.90;;;;;;6160384;23;20751;-76
2021/10/20 01:22:03;;;;;;;275.37;75.67;;;16.00;99.90;;;;;;6160819;23;20443;-76
2021/10/20 01:24:31;;;;;;;190.47;56.83;;;15.90;99.90;;;;;;6196998;23;20413;-76
2021/10/20 01:27:00;;;;;;;216.63;58.27;;;15.90;99.90;;;;;;6186885;23;21026;-76
2021/10/20 01:29:31;;;;;;;215.77;54.57;;;15.90;99.90;;;;;;6160716;23;20469;-76
2021/10/20 01:32:04;;;;;;;229.13;60.67;;;15.90;99.90;;;;;;6197477;23;20411;-76
2021/10/20 01:34:32;;;;;;;272.37;73.87;;;15.90;99.90;;;;;;6160674;23;20411;-76
2021/10/20 01:37:04;;;;;;;287.17;58.83;;;15.90;99.90;;;;;;6196830;23;20486;-76
2021/10/20 01:39:33;;;;;;;296.10;80.33;;;15.90;99.90;;;;;;6193283;23;20429;-76
2021/10/20 01:42:02;;;;;;;222.63;61.80;;;15.80;99.90;;;;;;6196924;23;20403;-77
2021/10/20 01:44:30;;;;;;;254.10;71.73;;;15.80;99.90;;;;;;6187130;23;20382;-76
2021/10/20 01:46:58;;;;;;;161.03;50.53;;;15.80;99.90;;;;;;6186752;23;20410;-76
2021/10/20 01:49:26;;;;;;;315.97;73.37;;;15.80;99.90;;;;;;6160446;23;20829;-76
2021/10/20 01:51:55;;;;;;;336.90;86.13;;;15.80;99.90;;;;;;6160438;23;20430;-76
2021/10/20 01:54:24;;;;;;;233.87;68.47;;;15.80;99.90;;;;;;6160256;23;20909;-76
2021/10/20 01:56:54;;;;;;;271.37;75.33;;;15.80;99.90;;;;;;6160152;23;20429;-76
2021/10/20 01:59:22;;;;;;;258.37;72.33;;;15.80;99.90;;;;;;6160299;23;20420;-76
2021/10/20 02:01:50;;;;;;;280.17;87.90;;;15.70;99.90;;;;;;6196656;23;20499;-76
2021/10/20 02:04:18;;;;;;;221.70;64.87;;;15.70;99.90;;;;;;6160366;23;20416;-76
2021/10/20 02:06:47;;;;;;;341.70;71.50;;;15.70;99.90;;;;;;6160241;23;20917;-76
2021/10/20 02:09:15;;;;;;;234.23;78.00;;;15.70;99.90;;;;;;6186891;23;20432;-76
2021/10/20 02:11:45;;;;;;;251.97;54.80;;;15.70;99.90;;;;;;6186517;23;20853;-76
2021/10/20 02:14:14;;;;;;;263.10;68.17;;;15.70;99.90;;;;;;6160719;23;20421;-76
2021/10/20 02:16:42;;;;;;;227.63;72.97;;;15.70;99.90;;;;;;6160368;23;20448;-76
2021/10/20 02:19:13;;;;;;;303.30;81.87;;;15.70;99.90;;;;;;6186900;23;20405;-76
2021/10/20 02:21:41;;;;;;;265.77;68.53;;;15.60;99.90;;;;;;6186702;23;20457;-76
2021/10/20 02:24:09;;;;;;;246.27;69.80;;;15.60;99.90;;;;;;6160154;23;20895;-76
2021/10/20 02:26:38;;;;;;;267.87;70.27;;;15.60;99.90;;;;;;6160077;23;20490;-76
2021/10/20 02:29:07;;;;;;;269.57;56.47;;;15.60;99.90;;;;;;6160181;23;20423;-76
2021/10/20 02:31:37;;;;;;;298.80;67.53;;;15.60;99.90;;;;;;6161257;23;20443;-76
2021/10/20 02:34:05;;;;;;;307.33;76.40;;;15.60;99.90;;;;;;6160122;23;20396;-76
2021/10/20 02:36:34;;;;;;;218.57;70.03;;;15.60;99.90;;;;;;6196394;23;20427;-76
2021/10/20 02:39:02;;;;;;;294.33;86.20;;;15.50;99.90;;;;;;6196208;23;20415;-76
2021/10/20 02:41:31;;;;;;;350.87;92.83;;;15.50;99.90;;;;;;6159970;23;20455;-76
2021/10/20 02:43:59;;;;;;;304.83;86.23;;;15.50;99.90;;;;;;6160006;23;20419;-76
2021/10/20 02:46:28;;;;;;;234.77;72.63;;;15.50;99.90;;;;;;6159868;23;20432;-77
2021/10/20 02:48:57;;;;;;;256.43;77.63;;;15.50;99.90;;;;;;6159830;23;20977;-77
2021/10/20 02:51:25;;;;;;;281.10;86.57;;;15.50;99.90;;;;;;6196252;23;20383;-76
2021/10/20 02:53:57;;;;;;;360.93;89.83;;;15.50;99.90;;;;;;6196574;23;20535;-76
2021/10/20 02:56:25;;;;;;;322.37;78.90;;;15.50;99.90;;;;;;6195963;23;20775;-76
2021/10/20 02:58:54;;;;;;;362.63;85.97;;;15.50;99.90;;;;;;6185981;23;20424;-75
2021/10/20 03:01:22;;;;;;;272.90;83.27;;;15.50;99.90;;;;;;6195795;23;20402;-74
2021/10/20 03:03:52;;;;;;;418.87;108.23;;;15.50;99.90;;;;;;6186415;23;20713;-76
2021/10/20 03:06:20;;;;;;;303.93;83.67;;;15.50;99.90;;;;;;6195936;23;20523;-76
2021/10/20 03:08:49;;;;;;;365.33;96.70;;;15.50;99.90;;;;;;6159668;23;20423;-75
2021/10/20 03:11:17;;;;;;;383.87;85.30;;;15.40;99.90;;;;;;6159755;23;20426;-76
2021/10/20 03:13:45;;;;;;;294.93;87.27;;;15.40;99.90;;;;;;6186379;23;20428;-76
2021/10/20 03:16:13;;;;;;;318.80;101.27;;;15.40;99.90;;;;;;6159596;23;20415;-76
2021/10/20 03:18:42;;;;;;;291.73;90.13;;;15.40;99.90;;;;;;6159562;23;20439;-76
2021/10/20 03:21:11;;;;;;;393.53;89.83;;;15.40;99.90;;;;;;6159714;23;20734;-76
2021/10/20 03:23:39;;;;;;;420.33;96.70;;;15.40;99.90;;;;;;6186243;23;20430;-76
2021/10/20 03:26:07;;;;;;;319.00;103.13;;;15.40;99.90;;;;;;6159431;23;20888;-76
2021/10/20 03:28:36;;;;;;;347.63;91.17;;;15.40;99.90;;;;;;6159410;23;20527;-76
2021/10/20 03:31:04;;;;;;;259.63;87.63;;;15.40;99.90;;;;;;6159724;23;20420;-76
2021/10/20 03:33:32;;;;;;;319.27;87.43;;;15.30;99.90;;;;;;6159002;23;20412;-76
2021/10/20 03:36:00;;;;;;;314.60;84.03;;;15.30;99.90;;;;;;6159420;23;20888;-76
2021/10/20 03:38:30;;;;;;;293.97;87.20;;;15.30;99.90;;;;;;6186141;23;20402;-76
2021/10/20 03:40:58;;;;;;;325.83;98.57;;;15.30;99.90;;;;;;6159362;23;20878;-76
2021/10/20 03:43:38;;;;;;;277.43;85.27;;;15.30;99.90;;;;;;6185844;23;20392;-76
2021/10/20 03:46:07;;;;;;;364.80;104.17;;;15.30;99.90;;;;;;6159435;23;20382;-76
2021/10/20 03:48:36;;;;;;;446.80;114.30;;;15.30;99.90;;;;;;6159548;23;20497;-76
2021/10/20 03:51:04;;;;;;;354.67;113.67;;;15.30;99.90;;;;;;6159619;23;20450;-76
2021/10/20 03:53:34;;;;;;;492.93;115.93;;;15.30;99.90;;;;;;6159157;23;21078;-77
2021/10/20 03:56:02;;;;;;;324.57;98.80;;;15.30;99.90;;;;;;6159761;23;20419;-76
2021/10/20 03:58:30;;;;;;;385.90;108.77;;;15.30;99.90;;;;;;6195564;23;20416;-76
2021/10/20 04:00:58;;;;;;;392.97;100.93;;;15.30;99.90;;;;;;6159245;23;20502;-77
2021/10/20 04:03:27;;;;;;;251.83;57.27;;;15.40;99.90;;;;;;6159393;23;20951;-76
2021/10/20 04:05:56;;;;;;;353.30;105.27;;;15.40;99.90;;;;;;6159197;23;20422;-76
2021/10/20 04:08:24;;;;;;;412.27;131.30;;;15.40;99.90;;;;;;6159088;23;20443;-76
2021/10/20 04:10:53;;;;;;;512.07;145.07;;;15.40;99.90;;;;;;6195651;23;20376;-76
2021/10/20 04:13:21;;;;;;;488.03;137.53;;;15.40;99.90;;;;;;6159185;23;20426;-77
2021/10/20 04:15:50;;;;;;;434.57;134.57;;;15.40;99.90;;;;;;6196047;23;20396;-76
2021/10/20 04:18:19;;;;;;;183.43;56.73;;;15.40;99.90;;;;;;6159131;23;20420;-76
2021/10/20 04:20:47;;;;;;;191.60;61.97;;;15.40;99.90;;;;;;6159298;23;20419;-76
2021/10/20 04:23:15;;;;;;;134.13;52.43;;;15.40;99.90;;;;;;6159213;23;20419;-77
2021/10/20 04:25:43;;;;;;;290.17;86.13;;;15.40;99.90;;;;;;6185914;23;20490;-76
2021/10/20 04:28:13;;;;;;;256.57;85.47;;;15.40;99.90;;;;;;6158927;23;20439;-77
2021/10/20 04:30:41;;;;;;;195.67;74.87;;;15.40;99.90;;;;;;6195568;23;20499;-76
2021/10/20 04:33:09;;;;;;;102.10;46.00;;;15.40;99.90;;;;;;6158829;23;20481;-77
2021/10/20 04:35:37;;;;;;;226.10;84.97;;;15.40;99.90;;;;;;6195754;23;20457;-76
2021/10/20 04:38:05;;;;;;;326.07;82.53;;;15.40;99.90;;;;;;6158975;23;20390;-77
2021/10/20 04:40:34;;;;;;;289.57;74.97;;;15.40;99.90;;;;;;6187341;23;20421;-76
2021/10/20 04:43:02;;;;;;;36.87;23.37;;;15.40;99.90;;;;;;6159243;23;20451;-76
2021/10/20 04:45:31;;;;;;;301.57;91.30;;;15.40;99.90;;;;;;6160015;23;20411;-76
2021/10/20 04:47:59;;;;;;;181.67;72.87;;;15.40;99.90;;;;;;6197390;23;20838;-76
2021/10/20 04:50:31;;;;;;;20.50;18.00;;;15.40;99.90;;;;;;6160812;23;20993;-77
2021/10/20 04:52:59;;;;;;;124.57;47.47;;;15.40;99.90;;;;;;6161061;23;20416;-76
2021/10/20 04:55:27;;;;;;;9.98;8.00;;;15.40;99.90;;;;;;6196480;23;20493;-76
2021/10/20 04:57:55;;;;;;;335.23;81.67;;;15.50;99.90;;;;;;6161077;23;20227;-76
2021/10/20 05:00:25;;;;;;;499.43;123.90;;;15.50;99.90;;;;;;6159381;23;20474;-77
2021/10/20 05:02:55;;;;;;;280.70;65.87;;;15.40;99.90;;;;;;6158987;23;20482;-77
2021/10/20 05:05:27;;;;;;;396.97;119.13;;;15.40;99.90;;;;;;6160025;23;20410;-77
2021/10/20 05:07:59;;;;;;;469.67;135.97;;;15.40;99.90;;;;;;6160881;23;20894;-77
2021/10/20 05:10:28;;;;;;;523.40;126.93;;;15.40;99.90;;;;;;6197051;23;20502;-76
2021/10/20 05:12:57;;;;;;;506.10;158.13;;;15.30;99.90;;;;;;6160819;23;20502;-77
2021/10/20 05:15:25;;;;;;;65.40;33.53;;;15.30;99.90;;;;;;6160779;23;20419;-77
2021/10/20 05:17:55;;;;;;;224.90;66.67;;;15.30;99.90;;;;;;6160820;23;20895;-76
2021/10/20 05:20:23;;;;;;;112.77;38.33;;;15.30;99.90;;;;;;6161095;23;20434;-76
2021/10/20 05:22:52;;;;;;;261.63;75.70;;;15.30;99.90;;;;;;6161875;23;20451;-76
2021/10/20 05:25:20;;;;;;;329.93;84.83;;;15.30;99.90;;;;;;6197420;23;20435;-76
2021/10/20 05:27:48;;;;;;;254.67;80.27;;;15.30;99.90;;;;;;6160631;23;20901;-76
2021/10/20 05:30:16;;;;;;;55.47;24.00;;;15.30;99.90;;;;;;6160697;23;20439;-76
2021/10/20 05:32:44;;;;;;;48.03;32.97;;;15.30;99.90;;;;;;6160697;23;20402;-76
2021/10/20 05:35:18;;;;;;;56.90;31.53;;;15.30;99.90;;;;;;6196958;23;20435;-76
2021/10/20 05:37:47;;;;;;;206.53;78.13;;;15.30;99.90;;;;;;6160721;23;20375;-76
2021/10/20 05:40:16;;;;;;;191.63;66.97;;;15.20;99.90;;;;;;6160642;23;20447;-76
2021/10/20 05:42:44;;;;;;;56.23;29.63;;;15.20;99.90;;;;;;6196840;23;20400;-76
2021/10/20 05:45:15;;;;;;;28.30;22.80;;;15.30;99.90;;;;;;6160504;23;20438;-76
2021/10/20 05:47:43;;;;;;;186.33;70.87;;;15.30;99.90;;;;;;6160313;23;20743;-76
2021/10/20 05:50:12;;;;;;;111.27;56.90;;;15.20;99.90;;;;;;6196812;23;20464;-75
2021/10/20 05:52:42;;;;;;;36.43;32.60;;;15.30;99.90;;;;;;6160400;23;20434;-76
2021/10/20 05:55:11;;;;;;;45.03;40.00;;;15.30;99.90;;;;;;6160393;23;20387;-75
2021/10/20 05:57:40;;;;;;;41.97;34.97;;;15.30;99.90;;;;;;6160346;23;20466;-76
2021/10/20 06:00:11;;;;;;;70.47;43.20;;;15.30;99.90;;;;;;6160421;23;20907;-75
2021/10/20 06:02:39;;;;;;;238.50;73.50;;;15.30;99.90;;;;;;6161464;23;20852;-75
2021/10/20 06:05:09;;;;;;;58.70;52.60;;;15.30;99.90;;;;;;6161214;23;20485;-75
2021/10/20 06:07:43;;;;;;;61.93;44.67;;;15.30;99.90;;;;;;6161214;23;20485;-76
2021/10/20 06:10:12;;;;;;;60.00;42.33;;;15.30;99.90;;;;;;6198018;23;20411;-76
2021/10/20 06:12:41;;;;;;;92.67;50.63;;;15.30;99.90;;;;;;6161431;23;20484;-76
2021/10/20 06:15:13;;;;;;;109.37;73.50;;;15.30;99.90;;;;;;6161969;23;20852;-76
2021/10/20 06:18:02;;;;;;;130.97;70.20;;;15.30;99.90;;;;;;6160917;23;20382;-75
2021/10/20 06:20:30;;;;;;;171.90;100.50;;;15.30;99.90;;;;;;6161224;23;20397;-76
2021/10/20 06:23:00;;;;;;;567.03;194.87;;;15.30;99.90;;;;;;6160890;23;20734;-75
2021/10/20 06:25:28;;;;;;;79.03;59.27;;;15.30;99.90;;;;;;6160862;23;20397;-75
2021/10/20 06:27:57;;;;;;;117.90;70.10;;;15.30;99.90;;;;;;6187506;23;20440;-75
2021/10/20 06:30:25;;;;;;;269.53;101.93;;;15.40;99.90;;;;;;6197112;23;20394;-74
2021/10/20 06:32:54;;;;;;;179.57;119.07;;;15.30;99.90;;;;;;6160741;23;20415;-75
2021/10/20 06:35:22;;;;;;;506.93;176.40;;;15.40;99.90;;;;;;6160968;23;20407;-76
2021/10/20 06:37:53;;;;;;;172.07;81.30;;;15.40;99.90;;;;;;6160905;23;20507;-75
2021/10/20 06:40:23;;;;;;;130.73;67.23;;;15.40;99.90;;;;;;6160735;23;20534;-76
2021/10/20 06:42:51;;;;;;;427.47;145.47;;;15.40;99.90;;;;;;6160884;23;20470;-75
2021/10/20 06:45:19;;;;;;;148.10;102.30;;;15.40;99.90;;;;;;6160822;23;20391;-75
2021/10/20 06:47:48;;;;;;;165.33;106.77;;;15.40;99.90;;;;;;6197087;23;20378;-75
2021/10/20 06:50:16;;;;;;;191.67;111.00;;;15.40;99.90;;;;;;6160447;23;20489;-75
2021/10/20 06:52:45;;;;;;;138.93;85.57;;;15.40;99.90;;;;;;6159836;23;20398;-76
2021/10/20 06:55:13;;;;;;;221.57;135.50;;;15.40;99.90;;;;;;6186634;23;20449;-76
2021/10/20 06:57:43;;;;;;;426.60;197.13;;;15.40;99.90;;;;;;6159858;23;20439;-75
2021/10/20 07:00:13;;;;;;;801.17;237.97;;;15.40;99.90;;;;;;6196149;23;20429;-76
2021/10/20 07:02:41;;;;;;;251.97;145.27;;;15.40;99.90;;;;;;6160677;23;20854;-75
2021/10/20 07:05:09;;;;;;;374.27;167.63;;;15.50;99.90;;;;;;6160295;23;20417;-76
2021/10/20 07:07:38;;;;;;;857.40;253.13;;;15.40;99.90;;;;;;6160733;23;20495;-76
2021/10/20 07:10:07;;;;;;;304.27;118.30;;;15.50;99.90;;;;;;6195666;23;20437;-76
2021/10/20 07:12:35;;;;;;;144.20;84.27;;;15.50;99.90;;;;;;6159898;23;20498;-76
2021/10/20 07:15:06;;;;;;;330.67;127.30;;;15.50;99.90;;;;;;6159953;23;20452;-76
2021/10/20 07:17:35;;;;;;;189.63;103.93;;;15.50;99.90;;;;;;6159921;23;20453;-75
2021/10/20 07:20:04;;;;;;;144.37;80.30;;;15.50;99.90;;;;;;6196249;23;20427;-76
2021/10/20 07:22:34;;;;;;;131.43;71.93;;;15.60;99.90;;;;;;6160026;23;20441;-75
2021/10/20 07:25:02;;;;;;;266.70;98.67;;;15.60;99.90;;;;;;6159587;23;20398;-76
2021/10/20 07:27:34;;;;;;;154.20;66.43;;;15.60;99.90;;;;;;6186735;23;20408;-75
2021/10/20 07:30:02;;;;;;;97.27;65.63;;;15.60;99.90;;;;;;6185946;23;20448;-76
2021/10/20 07:32:32;;;;;;;107.20;66.07;;;15.60;99.90;;;;;;6160003;23;20448;-76
2021/10/20 07:35:00;;;;;;;68.10;52.43;;;15.70;99.90;;;;;;6159724;23;20429;-75
2021/10/20 07:37:30;;;;;;;89.43;55.60;;;15.60;99.90;;;;;;6159606;23;20382;-76
2021/10/20 07:39:59;;;;;;;136.23;65.33;;;15.70;99.90;;;;;;6185925;23;20418;-75
2021/10/20 07:42:28;;;;;;;117.13;73.20;;;15.70;99.90;;;;;;6159461;23;20764;-76
2021/10/20 07:44:58;;;;;;;448.47;176.50;;;15.70;99.90;;;;;;6159584;23;20422;-76
2021/10/20 07:47:27;;;;;;;310.43;119.57;;;15.80;99.90;;;;;;6160097;23;20891;-75
2021/10/20 07:49:57;;;;;;;174.53;70.10;;;15.80;99.90;;;;;;6159311;23;20783;-76
2021/10/20 07:52:28;;;;;;;144.97;78.10;;;15.80;99.90;;;;;;6159616;23;20386;-76
2021/10/20 07:54:57;;;;;;;270.27;98.97;;;15.90;99.90;;;;;;6159623;23;20390;-75
2021/10/20 07:57:28;;;;;;;110.23;64.70;;;15.90;99.90;;;;;;6186278;23;20386;-76
2021/10/20 07:59:57;;;;;;;170.40;82.90;;;15.90;99.90;;;;;;6159350;23;20923;-75
2021/10/20 08:02:25;;;;;;;267.20;129.63;;;15.90;99.90;;;;;;6159622;23;20390;-76
2021/10/20 08:04:53;;;;;;;212.80;89.73;;;15.90;99.90;;;;;;6159649;23;20419;-75
2021/10/20 08:07:23;;;;;;;290.33;109.23;;;16.00;99.90;;;;;;6159865;23;20433;-75
2021/10/20 08:09:51;;;;;;;376.37;124.90;;;16.00;99.90;;;;;;6195579;23;20409;-75
2021/10/20 08:12:20;;;;;;;222.53;111.17;;;16.00;99.90;;;;;;6159721;23;20386;-75
2021/10/20 08:14:52;;;;;;;180.27;84.13;;;16.00;99.90;;;;;;6159894;23;20474;-74
2021/10/20 08:17:21;;;;;;;412.67;140.60;;;16.10;99.90;;;;;;6160418;23;20874;-75
2021/10/20 08:19:49;;;;;;;332.17;137.57;;;16.10;99.90;;;;;;6159994;23;20413;-75
2021/10/20 08:22:17;;;;;;;462.77;182.00;;;16.10;99.90;;;;;;6198522;23;20457;-76
2021/10/20 08:24:47;;;;;;;136.47;93.17;;;16.10;99.90;;;;;;6161860;23;20795;-76
2021/10/20 08:27:15;;;;;;;312.77;136.37;;;16.10;99.90;;;;;;6197975;23;20429;-76
2021/10/20 08:29:43;;;;;;;319.37;115.23;;;16.10;99.90;;;;;;6161855;23;20472;-76
2021/10/20 08:32:11;;;;;;;307.27;129.67;;;16.10;99.90;;;;;;6161406;23;20397;-76
2021/10/20 08:34:40;;;;;;;562.53;197.60;;;16.20;99.90;;;;;;6161927;23;20853;-76
2021/10/20 08:37:08;;;;;;;229.07;102.73;;;16.20;99.90;;;;;;6198358;23;20454;-75
2021/10/20 08:39:36;;;;;;;254.97;98.70;;;16.10;99.90;;;;;;6160907;23;20414;-76
2021/10/20 08:42:06;;;;;;;258.20;128.20;;;16.20;99.90;;;;;;6197994;23;20787;-76
2021/10/20 08:44:34;;;;;;;256.07;117.90;;;16.20;99.90;;;;;;6161238;23;20498;-76
2021/10/20 08:47:08;;;;;;;305.23;138.43;;;16.20;99.90;;;;;;6161056;23;20450;-77
2021/10/20 08:49:40;;;;;;;349.00;144.07;;;16.20;99.90;;;;;;6197410;23;20406;-77
2021/10/20 08:52:09;;;;;;;250.70;94.97;;;16.20;99.90;;;;;;6187381;23;20377;-76
2021/10/20 08:54:37;;;;;;;224.00;101.53;;;16.20;99.90;;;;;;6187767;23;20390;-77
2021/10/20 08:57:07;;;;;;;274.17;118.33;;;16.30;99.90;;;;;;6161141;23;20485;-76
2021/10/20 08:59:35;;;;;;;408.23;142.87;;;16.30;99.90;;;;;;6161074;23;20406;-76
2021/10/20 09:02:04;;;;;;;1093.33;333.93;;;16.30;99.90;;;;;;6160859;23;20446;-76
2021/10/20 09:04:35;;;;;;;397.63;178.23;;;16.30;99.90;;;;;;6160921;23;20738;-76
2021/10/20 09:07:14;;;;;;;621.57;222.57;;;16.40;99.90;;;;;;6160866;23;20783;-76
2021/10/20 09:09:42;;;;;;;377.27;174.80;;;16.40;99.90;;;;;;6160655;23;20494;-76
2021/10/20 09:12:12;;;;;;;626.77;217.97;;;16.40;99.90;;;;;;6161312;23;20416;-76
2021/10/20 09:14:42;;;;;;;467.30;159.43;;;16.50;99.90;;;;;;6197185;23;20378;-76
2021/10/20 09:17:10;;;;;;;303.73;117.40;;;16.50;99.90;;;;;;6160931;23;20446;-76
2021/10/20 09:19:38;;;;;;;632.17;226.17;;;16.60;99.90;;;;;;6160708;23;20439;-76
2021/10/20 09:22:09;;;;;;;528.47;202.97;;;16.70;99.90;;;;;;6197171;23;20370;-76
2021/10/20 09:24:40;;;;;;;1114.70;338.93;;;16.70;99.90;;;;;;6160713;23;20383;-77
2021/10/20 09:27:24;;;;;;;1257.40;365.37;;;16.80;99.90;;;;;;6160697;23;20450;-76
2021/10/20 09:30:09;;;;;;;905.23;316.30;;;16.80;99.90;;;;;;6160497;23;20464;-76
2021/10/20 09:32:37;;;;;;;1029.43;319.17;;;16.80;99.90;;;;;;6186819;23;20398;-76
2021/10/20 09:35:06;;;;;;;1177.83;360.13;;;16.90;99.90;;;;;;6160752;23;20387;-77
2021/10/20 09:37:34;;;;;;;1330.73;422.70;;;16.90;99.90;;;;;;6160601;23;20449;-76
2021/10/20 09:40:04;;;;;;;1289.50;394.03;;;16.90;99.90;;;;;;6160346;23;20827;-76
2021/10/20 09:42:44;;;;;;;1237.50;375.53;;;16.90;99.90;;;;;;6160477;23;20450;-76
2021/10/20 09:45:15;;;;;;;624.60;210.07;;;16.90;99.90;;;;;;6187304;23;20433;-77
2021/10/20 09:47:44;;;;;;;1112.23;333.93;;;16.90;99.90;;;;;;6197000;23;20388;-76
2021/10/20 09:50:18;;;;;;;1016.13;298.83;;;17.00;99.90;;;;;;6186783;23;20441;-76
2021/10/20 09:52:48;;;;;;;997.07;316.73;;;17.00;99.90;;;;;;6187192;23;20374;-76
2021/10/20 09:55:24;;;;;;;458.57;185.83;;;17.00;99.90;;;;;;6160418;23;20521;-76
2021/10/20 09:58:01;;;;;;;829.03;256.90;;;17.00;99.90;;;;;;6197132;23;20791;-76
2021/10/20 10:00:29;;;;;;;305.00;127.93;;;17.10;99.90;;;;;;6197406;23;20386;-76
2021/10/20 10:02:58;;;;;;;461.77;124.83;;;17.10;99.90;;;;;;6196713;23;20396;-76
2021/10/20 10:05:27;;;;;;;183.87;71.50;;;17.10;99.90;;;;;;6160493;23;20416;-76
2021/10/20 10:07:55;;;;;;;102.63;51.97;;;17.10;99.90;;;;;;6160312;23;20903;-76
2021/10/20 10:10:24;;;;;;;183.60;64.43;;;17.10;99.90;;;;;;6160207;23;20414;-77
2021/10/20 10:12:54;;;;;;;260.63;75.70;;;17.10;99.90;;;;;;6160312;23;20922;-76
2021/10/20 10:15:25;;;;;;;127.77;68.87;;;17.10;99.90;;;;;;6196990;23;20694;-77
2021/10/20 10:17:57;;;;;;;481.00;129.47;;;17.10;99.90;;;;;;6160289;23;20390;-76
2021/10/20 10:20:29;;;;;;;324.67;122.90;;;17.10;99.90;;;;;;6186704;23;20519;-76
2021/10/20 10:22:59;;;;;;;167.20;81.90;;;17.10;99.90;;;;;;6160209;23;20443;-76
2021/10/20 10:25:33;;;;;;;161.83;71.23;;;17.20;99.90;;;;;;6186860;23;20451;-76
2021/10/20 10:28:07;;;;;;;410.23;129.80;;;17.20;99.90;;;;;;6160113;23;20435;-77
2021/10/20 10:30:48;;;;;;;191.33;89.43;;;17.20;99.90;;;;;;6160032;23;20439;-77
2021/10/20 10:33:18;;;;;;;284.10;122.17;;;17.30;99.90;;;;;;6196838;23;20357;-76
2021/10/20 10:36:01;;;;;;;394.77;143.17;;;17.40;99.90;;;;;;6160080;23;20415;-76
2021/10/20 10:38:37;;;;;;;567.97;178.83;;;17.40;99.90;;;;;;6197068;23;20785;-76
2021/10/20 10:41:34;;;;;;;426.70;149.90;;;17.50;99.90;;;;;;6159916;23;20397;-76
2021/10/20 10:44:18;;;;;;;394.80;121.17;;;17.50;99.90;;;;;;6110561;23;20386;-76
2021/10/20 10:47:06;;;;;;;768.90;229.93;;;17.60;99.90;;;;;;6159887;23;20398;-77
2021/10/20 10:49:38;;;;;;;557.80;193.50;;;17.60;99.90;;;;;;6159850;23;20526;-77
2021/10/20 10:52:19;;;;;;;463.00;169.47;;;17.70;99.90;;;;;;6159863;23;20496;-76
2021/10/20 10:55:08;;;;;;;784.60;268.43;;;17.70;99.90;;;;;;6186628;23;20414;-77
2021/10/20 10:57:39;;;;;;;576.33;203.60;;;17.70;99.90;;;;;;6156126;23;20498;-76
2021/10/20 11:00:10;;;;;;;722.57;232.57;;;17.70;99.90;;;;;;6196187;23;20416;-77
2021/10/20 11:02:44;;;;;;;418.27;168.97;;;17.70;99.90;;;;;;6196479;23;20391;-77
2021/10/20 11:05:13;;;;;;;429.60;167.73;;;17.70;99.90;;;;;;6186499;23;20392;-77
2021/10/20 11:07:46;;;;;;;646.40;233.57;;;17.70;99.90;;;;;;6159712;23;20415;-77
2021/10/20 11:10:17;;;;;;;552.13;211.37;;;17.70;99.90;;;;;;6195947;23;20416;-76
2021/10/20 11:12:47;;;;;;;601.87;212.97;;;17.70;99.90;;;;;;6159633;23;20411;-76
2021/10/20 11:15:16;;;;;;;551.03;194.83;;;17.70;99.90;;;;;;6159649;23;20422;-77
2021/10/20 11:17:46;;;;;;;524.23;198.27;;;17.70;99.90;;;;;;6159519;23;20454;-77
2021/10/20 11:20:17;;;;;;;973.20;267.77;;;17.70;99.90;;;;;;6159523;23;20467;-76
2021/10/20 11:22:46;;;;;;;594.57;209.07;;;17.70;99.90;;;;;;6196343;23;20687;-77
2021/10/20 11:25:16;;;;;;;588.37;231.73;;;17.80;99.90;;;;;;6159553;23;20523;-76
2021/10/20 11:27:47;;;;;;;713.47;231.10;;;17.80;99.90;;;;;;6159580;23;20419;-77
2021/10/20 11:30:17;;;;;;;656.70;228.37;;;17.80;99.90;;;;;;6159514;23;20504;-76
2021/10/20 11:32:47;;;;;;;736.50;260.23;;;17.80;99.90;;;;;;6186200;23;20439;-77
2021/10/20 11:35:18;;;;;;;533.83;195.73;;;17.80;99.90;;;;;;6196544;23;20414;-77
2021/10/20 11:37:55;;;;;;;643.87;188.60;;;17.80;99.90;;;;;;6159618;23;20415;-76
2021/10/20 11:40:24;;;;;;;360.53;141.43;;;17.80;99.90;;;;;;6159403;23;20451;-76
2021/10/20 11:42:52;;;;;;;696.97;238.57;;;17.80;99.90;;;;;;6159325;23;20506;-76
2021/10/20 11:45:21;;;;;;;518.80;207.00;;;17.80;99.90;;;;;;6159799;23;20810;-77
2021/10/20 11:47:52;;;;;;;983.47;282.67;;;17.80;99.90;;;;;;6159422;23;20441;-77
2021/10/20 11:50:20;;;;;;;869.23;275.27;;;17.90;99.90;;;;;;6195857;23;20423;-76
2021/10/20 11:52:59;;;;;;;912.37;298.10;;;17.90;99.90;;;;;;6159388;23;20404;-76
2021/10/20 11:55:28;;;;;;;869.40;305.40;;;18.00;99.90;;;;;;6160229;23;20439;-77
2021/10/20 11:57:56;;;;;;;719.23;273.77;;;18.10;99.90;;;;;;6159349;23;20526;-76
2021/10/20 12:00:25;;;;;;;1013.67;327.10;;;18.10;99.90;;;;;;6159314;23;20438;-76
2021/10/20 12:02:54;;;;;;;1341.80;398.83;;;18.20;99.90;;;;;;6186007;23;20723;-76
2021/10/20 12:05:23;;;;;;;1340.60;423.37;;;18.20;99.90;;;;;;6159293;23;20418;-77
2021/10/20 12:07:51;;;;;;;31.40;20.50;;;18.20;99.90;;;;;;6159031;23;20415;-76
2021/10/20 12:10:21;;;;;;;1878.73;617.30;;;18.30;99.90;;;;;;6159164;23;20226;-77
2021/10/20 12:12:50;;;;;;;906.83;291.87;;;18.30;99.90;;;;;;6185847;23;20433;-76
2021/10/20 12:15:21;;;;;;;1201.27;387.77;;;18.30;99.90;;;;;;6159310;23;20498;-76
2021/10/20 12:17:51;;;;;;;1907.70;584.47;;;18.30;99.90;;;;;;6195638;23;20406;-76
2021/10/20 12:20:20;;;;;;;784.60;262.03;;;18.20;99.90;;;;;;6195552;23;20499;-76
2021/10/20 12:22:49;;;;;;;636.13;225.27;;;18.20;99.90;;;;;;6159219;23;20746;-76
2021/10/20 12:25:18;;;;;;;989.10;334.90;;;18.20;99.90;;;;;;6185865;23;20769;-76
2021/10/20 12:27:47;;;;;;;1188.30;366.43;;;18.20;99.90;;;;;;6159265;23;20791;-76